sensor_id;sensor_type;location;lat;lon;timestamp;pressure;altitude;pressure_sealevel;temperature;humidity
5574;BME280;2563;52.242;7.956;2022-12-29T00:01:34;95598.88;;;9.21;100.00
5574;BME280;2563;52.242;7.956;2022-12-29T00:04:00;95588.13;;;9.18;100.00
5574;BME280;2563;52.242;7.956;2022-12-29T00:06:26;95569.19;;;9.19;100.00
5574;BME280;2563;52.242;7.956;2022-12-29T00:08:51;95592.59;;;9.15;100.00
5574;BME280;2563;52.242;7.956;2022-12-29T00:11:22;95589.25;;;9.23;100.00
5574;BME280;2563;52.242;7.956;2022-12-29T00:13:48;95581.72;;;9.22;100.00
5574;BME280;2563;52.242;7.956;2022-12-29T00:16:34;95569.25;;;9.27;100.00
5574;BME280;2563;52.242;7.956;2022-12-29T00:18:59;95574.69;;;9.24;100.00
5574;BME280;2563;52.242;7.956;2022-12-29T00:21:26;95582.09;;;9.27;100.00
5574;BME280;2563;52.242;7.956;2022-12-29T00:24:21;95563.50;;;9.33;100.00
5574;BME280;2563;52.242;7.956;2022-12-29T00:29:49;95564.81;;;9.37;100.00
5574;BME280;2563;52.242;7.956;2022-12-29T00:32:33;95562.91;;;9.39;100.00
5574;BME280;2563;52.242;7.956;2022-12-29T00:35:33;95551.38;;;9.43;100.00
5574;BME280;2563;52.242;7.956;2022-12-29T00:38:04;95548.34;;;9.48;100.00
5574;BME280;2563;52.242;7.956;2022-12-29T00:40:50;95544.53;;;9.52;100.00
5574;BME280;2563;52.242;7.956;2022-12-29T00:43:34;95536.03;;;9.51;100.00
5574;BME280;2563;52.242;7.956;2022-12-29T00:46:18;95523.22;;;9.59;100.00
5574;BME280;2563;52.242;7.956;2022-12-29T00:48:44;95529.97;;;9.61;100.00
5574;BME280;2563;52.242;7.956;2022-12-29T00:51:27;95530.91;;;9.59;100.00
5574;BME280;2563;52.242;7.956;2022-12-29T00:53:53;95519.69;;;9.61;100.00
5574;BME280;2563;52.242;7.956;2022-12-29T00:56:18;95521.47;;;9.60;100.00
5574;BME280;2563;52.242;7.956;2022-12-29T00:58:44;95528.34;;;9.59;100.00
5574;BME280;2563;52.242;7.956;2022-12-29T01:01:09;95537.31;;;9.55;100.00
5574;BME280;2563;52.242;7.956;2022-12-29T01:03:36;95519.19;;;9.57;100.00
5574;BME280;2563;52.242;7.956;2022-12-29T01:06:07;95515.97;;;9.55;100.00
5574;BME280;2563;52.242;7.956;2022-12-29T01:08:32;95522.22;;;9.52;100.00
5574;BME280;2563;52.242;7.956;2022-12-29T01:11:06;95526.75;;;9.58;100.00
5574;BME280;2563;52.242;7.956;2022-12-29T01:13:32;95537.94;;;9.57;100.00
5574;BME280;2563;52.242;7.956;2022-12-29T01:15:58;95548.88;;;9.59;100.00
5574;BME280;2563;52.242;7.956;2022-12-29T01:18:24;95530.91;;;9.59;100.00
5574;BME280;2563;52.242;7.956;2022-12-29T01:20:50;95531.88;;;9.58;100.00
5574;BME280;2563;52.242;7.956;2022-12-29T01:23:15;95528.06;;;9.63;100.00
5574;BME280;2563;52.242;7.956;2022-12-29T01:25:41;95532.22;;;9.64;100.00
5574;BME280;2563;52.242;7.956;2022-12-29T01:28:06;95532.53;;;9.69;100.00
5574;BME280;2563;52.242;7.956;2022-12-29T01:30:34;95527.41;;;9.69;100.00
5574;BME280;2563;52.242;7.956;2022-12-29T01:32:59;95523.59;;;9.73;100.00
5574;BME280;2563;52.242;7.956;2022-12-29T01:35:24;95525.69;;;9.77;100.00
5574;BME280;2563;52.242;7.956;2022-12-29T01:37:50;95530.97;;;9.76;100.00
5574;BME280;2563;52.242;7.956;2022-12-29T01:40:15;95532.22;;;9.72;100.00
5574;BME280;2563;52.242;7.956;2022-12-29T01:42:41;95536.88;;;9.68;100.00
5574;BME280;2563;52.242;7.956;2022-12-29T01:45:14;95541.81;;;9.62;100.00
5574;BME280;2563;52.242;7.956;2022-12-29T01:50:23;95553.97;;;9.51;100.00
5574;BME280;2563;52.242;7.956;2022-12-29T01:52:55;95559.13;;;9.51;100.00
5574;BME280;2563;52.242;7.956;2022-12-29T01:55:22;95541.81;;;9.53;100.00
5574;BME280;2563;52.242;7.956;2022-12-29T01:57:51;95558.78;;;9.54;100.00
5574;BME280;2563;52.242;7.956;2022-12-29T02:00:18;95553.22;;;9.59;100.00
5574;BME280;2563;52.242;7.956;2022-12-29T02:02:50;95556.75;;;9.58;100.00
5574;BME280;2563;52.242;7.956;2022-12-29T02:05:39;95528.19;;;9.61;100.00
5574;BME280;2563;52.242;7.956;2022-12-29T02:08:06;95536.69;;;9.62;100.00
5574;BME280;2563;52.242;7.956;2022-12-29T02:10:35;95535.09;;;9.61;100.00
5574;BME280;2563;52.242;7.956;2022-12-29T02:13:01;95525.13;;;9.57;100.00
5574;BME280;2563;52.242;7.956;2022-12-29T02:15:40;95529.31;;;9.58;100.00
5574;BME280;2563;52.242;7.956;2022-12-29T02:26:47;95473.06;;;9.65;100.00
5574;BME280;2563;52.242;7.956;2022-12-29T02:34:52;95438.25;;;9.71;100.00
5574;BME280;2563;52.242;7.956;2022-12-29T02:43:04;95419.66;;;9.77;100.00
5574;BME280;2563;52.242;7.956;2022-12-29T02:46:00;95388.84;;;9.77;100.00
5574;BME280;2563;52.242;7.956;2022-12-29T02:48:35;95378.25;;;9.80;100.00
5574;BME280;2563;52.242;7.956;2022-12-29T02:52:05;95365.44;;;9.80;100.00
5574;BME280;2563;52.242;7.956;2022-12-29T02:54:11;95358.03;;;9.85;100.00
5574;BME280;2563;52.242;7.956;2022-12-29T02:56:55;95341.84;;;9.85;100.00
5574;BME280;2563;52.242;7.956;2022-12-29T02:59:21;95345.22;;;9.85;100.00
5574;BME280;2563;52.242;7.956;2022-12-29T03:10:45;95313.13;;;9.89;100.00
5574;BME280;2563;52.242;7.956;2022-12-29T03:16:24;95293.84;;;9.93;100.00
5574;BME280;2563;52.242;7.956;2022-12-29T03:19:07;95285.53;;;9.91;100.00
5574;BME280;2563;52.242;7.956;2022-12-29T03:21:44;95283.91;;;9.90;100.00
5574;BME280;2563;52.242;7.956;2022-12-29T03:24:33;95263.03;;;9.93;100.00
5574;BME280;2563;52.242;7.956;2022-12-29T03:27:03;95275.25;;;9.91;100.00
5574;BME280;2563;52.242;7.956;2022-12-29T03:29:33;95285.19;;;9.94;100.00
5574;BME280;2563;52.242;7.956;2022-12-29T03:32:02;95265.59;;;9.93;100.00
5574;BME280;2563;52.242;7.956;2022-12-29T03:34:30;95257.25;;;9.99;100.00
5574;BME280;2563;52.242;7.956;2022-12-29T03:37:13;95274.94;;;9.94;100.00
5574;BME280;2563;52.242;7.956;2022-12-29T03:39:40;95266.91;;;9.97;100.00
5574;BME280;2563;52.242;7.956;2022-12-29T03:42:10;95280.53;;;9.98;100.00
5574;BME280;2563;52.242;7.956;2022-12-29T03:44:39;95271.69;;;10.09;100.00
5574;BME280;2563;52.242;7.956;2022-12-29T03:47:06;95272.03;;;10.06;100.00
5574;BME280;2563;52.242;7.956;2022-12-29T03:49:33;95264.63;;;10.11;100.00
5574;BME280;2563;52.242;7.956;2022-12-29T03:51:58;95258.16;;;10.15;100.00
5574;BME280;2563;52.242;7.956;2022-12-29T03:54:24;95254.31;;;10.19;100.00
5574;BME280;2563;52.242;7.956;2022-12-29T03:56:49;95264.91;;;10.24;100.00
5574;BME280;2563;52.242;7.956;2022-12-29T03:59:15;95264.44;;;10.20;100.00
5574;BME280;2563;52.242;7.956;2022-12-29T04:01:40;95278.72;;;10.23;100.00
5574;BME280;2563;52.242;7.956;2022-12-29T04:04:06;95271.00;;;10.23;100.00
5574;BME280;2563;52.242;7.956;2022-12-29T04:06:31;95282.91;;;10.16;100.00
5574;BME280;2563;52.242;7.956;2022-12-29T04:08:56;95299.44;;;10.13;100.00
5574;BME280;2563;52.242;7.956;2022-12-29T04:11:22;95287.38;;;10.22;100.00
5574;BME280;2563;52.242;7.956;2022-12-29T04:13:47;95293.00;;;10.26;100.00
5574;BME280;2563;52.242;7.956;2022-12-29T04:16:13;95295.25;;;10.29;100.00
5574;BME280;2563;52.242;7.956;2022-12-29T04:18:38;95284.16;;;10.36;100.00
5574;BME280;2563;52.242;7.956;2022-12-29T04:21:04;95300.38;;;10.37;100.00
5574;BME280;2563;52.242;7.956;2022-12-29T04:23:32;95306.97;;;10.31;100.00
5574;BME280;2563;52.242;7.956;2022-12-29T04:25:58;95311.13;;;10.40;100.00
5574;BME280;2563;52.242;7.956;2022-12-29T04:28:24;95310.47;;;10.47;100.00
5574;BME280;2563;52.242;7.956;2022-12-29T04:30:49;95320.09;;;10.45;100.00
5574;BME280;2563;52.242;7.956;2022-12-29T04:33:15;95338.72;;;10.38;100.00
5574;BME280;2563;52.242;7.956;2022-12-29T04:35:42;95327.47;;;10.48;100.00
5574;BME280;2563;52.242;7.956;2022-12-29T04:38:08;95342.56;;;10.51;100.00
5574;BME280;2563;52.242;7.956;2022-12-29T04:40:33;95358.31;;;10.48;100.00
5574;BME280;2563;52.242;7.956;2022-12-29T04:42:59;95355.88;;;10.54;100.00
5574;BME280;2563;52.242;7.956;2022-12-29T04:45:24;95354.75;;;10.57;100.00
5574;BME280;2563;52.242;7.956;2022-12-29T04:47:49;95376.25;;;10.56;100.00
5574;BME280;2563;52.242;7.956;2022-12-29T04:50:15;95382.88;;;10.50;100.00
5574;BME280;2563;52.242;7.956;2022-12-29T04:52:40;95407.28;;;10.46;100.00
5574;BME280;2563;52.242;7.956;2022-12-29T04:55:06;95422.06;;;10.52;100.00
5574;BME280;2563;52.242;7.956;2022-12-29T04:57:32;95435.41;;;10.48;100.00
5574;BME280;2563;52.242;7.956;2022-12-29T04:59:57;95444.38;;;10.43;100.00
5574;BME280;2563;52.242;7.956;2022-12-29T05:02:23;95480.19;;;10.45;100.00
5574;BME280;2563;52.242;7.956;2022-12-29T05:04:48;95466.56;;;10.45;100.00
5574;BME280;2563;52.242;7.956;2022-12-29T05:07:14;95483.25;;;10.40;100.00
5574;BME280;2563;52.242;7.956;2022-12-29T05:09:39;95503.81;;;10.32;100.00
5574;BME280;2563;52.242;7.956;2022-12-29T05:12:05;95530.09;;;10.26;100.00
5574;BME280;2563;52.242;7.956;2022-12-29T05:14:30;95535.91;;;10.20;100.00
5574;BME280;2563;52.242;7.956;2022-12-29T05:16:57;95562.19;;;10.14;100.00
5574;BME280;2563;52.242;7.956;2022-12-29T05:19:22;95558.16;;;10.03;100.00
5574;BME280;2563;52.242;7.956;2022-12-29T05:21:48;95595.19;;;9.92;100.00
5574;BME280;2563;52.242;7.956;2022-12-29T05:24:14;95608.03;;;9.84;100.00
5574;BME280;2563;52.242;7.956;2022-12-29T05:26:40;95624.81;;;9.78;100.00
5574;BME280;2563;52.242;7.956;2022-12-29T05:29:06;95642.44;;;9.73;100.00
5574;BME280;2563;52.242;7.956;2022-12-29T05:31:31;95662.50;;;9.70;100.00
5574;BME280;2563;52.242;7.956;2022-12-29T05:33:57;95682.66;;;9.65;100.00
5574;BME280;2563;52.242;7.956;2022-12-29T05:36:22;95689.22;;;9.59;100.00
5574;BME280;2563;52.242;7.956;2022-12-29T05:38:48;95704.56;;;9.51;100.00
5574;BME280;2563;52.242;7.956;2022-12-29T05:41:13;95692.19;;;9.46;100.00
5574;BME280;2563;52.242;7.956;2022-12-29T05:43:39;95703.69;;;9.42;100.00
5574;BME280;2563;52.242;7.956;2022-12-29T05:46:04;95702.38;;;9.38;100.00
5574;BME280;2563;52.242;7.956;2022-12-29T05:48:29;95711.34;;;9.34;100.00
5574;BME280;2563;52.242;7.956;2022-12-29T05:50:55;95738.22;;;9.30;100.00
5574;BME280;2563;52.242;7.956;2022-12-29T05:53:20;95743.50;;;9.28;100.00
5574;BME280;2563;52.242;7.956;2022-12-29T05:55:47;95758.22;;;9.26;100.00
5574;BME280;2563;52.242;7.956;2022-12-29T05:58:13;95770.56;;;9.23;100.00
5574;BME280;2563;52.242;7.956;2022-12-29T06:00:38;95759.50;;;9.22;100.00
5574;BME280;2563;52.242;7.956;2022-12-29T06:03:04;95756.41;;;9.19;100.00
5574;BME280;2563;52.242;7.956;2022-12-29T06:05:29;95744.53;;;9.18;100.00
5574;BME280;2563;52.242;7.956;2022-12-29T06:07:54;95740.66;;;9.13;100.00
5574;BME280;2563;52.242;7.956;2022-12-29T06:10:20;95747.53;;;9.13;100.00
5574;BME280;2563;52.242;7.956;2022-12-29T06:12:45;95725.41;;;9.12;100.00
5574;BME280;2563;52.242;7.956;2022-12-29T06:15:12;95716.25;;;9.09;100.00
5574;BME280;2563;52.242;7.956;2022-12-29T06:17:37;95726.81;;;9.06;100.00
5574;BME280;2563;52.242;7.956;2022-12-29T06:20:03;95720.34;;;9.02;100.00
5574;BME280;2563;52.242;7.956;2022-12-29T06:22:28;95714.56;;;9.00;100.00
5574;BME280;2563;52.242;7.956;2022-12-29T06:24:54;95715.81;;;8.96;100.00
5574;BME280;2563;52.242;7.956;2022-12-29T06:27:19;95713.69;;;8.91;100.00
5574;BME280;2563;52.242;7.956;2022-12-29T06:29:44;95726.16;;;8.86;100.00
5574;BME280;2563;52.242;7.956;2022-12-29T06:32:10;95726.59;;;8.82;100.00
5574;BME280;2563;52.242;7.956;2022-12-29T06:34:35;95734.34;;;8.72;100.00
5574;BME280;2563;52.242;7.956;2022-12-29T06:37:01;95732.28;;;8.76;100.00
5574;BME280;2563;52.242;7.956;2022-12-29T06:39:27;95719.94;;;8.89;100.00
5574;BME280;2563;52.242;7.956;2022-12-29T06:41:52;95727.53;;;8.81;100.00
5574;BME280;2563;52.242;7.956;2022-12-29T06:44:19;95729.28;;;8.80;100.00
5574;BME280;2563;52.242;7.956;2022-12-29T06:46:44;95725.63;;;8.83;100.00
5574;BME280;2563;52.242;7.956;2022-12-29T06:49:10;95725.84;;;8.89;100.00
5574;BME280;2563;52.242;7.956;2022-12-29T06:51:35;95719.63;;;8.92;100.00
5574;BME280;2563;52.242;7.956;2022-12-29T06:54:00;95709.06;;;8.95;100.00
5574;BME280;2563;52.242;7.956;2022-12-29T06:56:26;95712.31;;;8.97;100.00
5574;BME280;2563;52.242;7.956;2022-12-29T06:58:51;95698.56;;;8.98;100.00
5574;BME280;2563;52.242;7.956;2022-12-29T07:01:16;95718.75;;;9.01;100.00
5574;BME280;2563;52.242;7.956;2022-12-29T07:03:42;95713.03;;;9.07;100.00
5574;BME280;2563;52.242;7.956;2022-12-29T07:06:08;95716.41;;;9.08;100.00
5574;BME280;2563;52.242;7.956;2022-12-29T07:08:33;95727.09;;;9.03;100.00
5574;BME280;2563;52.242;7.956;2022-12-29T07:10:58;95741.53;;;9.04;100.00
5574;BME280;2563;52.242;7.956;2022-12-29T07:13:24;95728.13;;;9.10;100.00
5574;BME280;2563;52.242;7.956;2022-12-29T07:15:49;95736.09;;;9.07;100.00
5574;BME280;2563;52.242;7.956;2022-12-29T07:18:15;95741.47;;;8.96;100.00
5574;BME280;2563;52.242;7.956;2022-12-29T07:20:40;95765.53;;;8.85;100.00
5574;BME280;2563;52.242;7.956;2022-12-29T07:23:05;95773.94;;;8.78;100.00
5574;BME280;2563;52.242;7.956;2022-12-29T07:25:31;95792.63;;;8.70;100.00
5574;BME280;2563;52.242;7.956;2022-12-29T07:27:56;95801.28;;;8.59;100.00
5574;BME280;2563;52.242;7.956;2022-12-29T07:30:22;95810.72;;;8.59;100.00
5574;BME280;2563;52.242;7.956;2022-12-29T07:32:47;95818.00;;;8.63;100.00
5574;BME280;2563;52.242;7.956;2022-12-29T07:35:12;95834.88;;;8.56;100.00
5574;BME280;2563;52.242;7.956;2022-12-29T07:37:38;95845.72;;;8.50;100.00
5574;BME280;2563;52.242;7.956;2022-12-29T07:40:03;95870.66;;;8.48;100.00
5574;BME280;2563;52.242;7.956;2022-12-29T07:42:30;95881.31;;;8.43;100.00
5574;BME280;2563;52.242;7.956;2022-12-29T07:44:56;95865.91;;;8.53;100.00
5574;BME280;2563;52.242;7.956;2022-12-29T07:47:21;95879.00;;;8.50;100.00
5574;BME280;2563;52.242;7.956;2022-12-29T07:49:46;95893.56;;;8.40;100.00
5574;BME280;2563;52.242;7.956;2022-12-29T07:52:12;95901.50;;;8.37;100.00
5574;BME280;2563;52.242;7.956;2022-12-29T07:54:38;95913.38;;;8.38;100.00
5574;BME280;2563;52.242;7.956;2022-12-29T07:57:04;95920.81;;;8.41;100.00
5574;BME280;2563;52.242;7.956;2022-12-29T07:59:29;95919.19;;;8.40;100.00
5574;BME280;2563;52.242;7.956;2022-12-29T08:01:55;95929.69;;;8.46;100.00
5574;BME280;2563;52.242;7.956;2022-12-29T08:04:20;95934.03;;;8.46;100.00
5574;BME280;2563;52.242;7.956;2022-12-29T08:06:46;95934.03;;;8.46;100.00
5574;BME280;2563;52.242;7.956;2022-12-29T08:09:11;95944.13;;;8.47;100.00
5574;BME280;2563;52.242;7.956;2022-12-29T08:11:37;95946.25;;;8.52;100.00
5574;BME280;2563;52.242;7.956;2022-12-29T08:14:03;95949.25;;;8.57;100.00
5574;BME280;2563;52.242;7.956;2022-12-29T08:16:28;95964.06;;;8.54;100.00
5574;BME280;2563;52.242;7.956;2022-12-29T08:18:54;95966.22;;;8.58;100.00
5574;BME280;2563;52.242;7.956;2022-12-29T08:21:19;95974.41;;;8.62;100.00
5574;BME280;2563;52.242;7.956;2022-12-29T08:23:44;95971.72;;;8.63;100.00
5574;BME280;2563;52.242;7.956;2022-12-29T08:26:10;95982.38;;;8.68;100.00
5574;BME280;2563;52.242;7.956;2022-12-29T08:28:36;95985.72;;;8.79;100.00
5574;BME280;2563;52.242;7.956;2022-12-29T08:31:02;95990.84;;;8.79;100.00
5574;BME280;2563;52.242;7.956;2022-12-29T08:33:28;95995.72;;;8.82;100.00
5574;BME280;2563;52.242;7.956;2022-12-29T08:36:04;95989.22;;;8.87;100.00
5574;BME280;2563;52.242;7.956;2022-12-29T08:38:30;96003.09;;;8.94;100.00
5574;BME280;2563;52.242;7.956;2022-12-29T08:40:56;95997.53;;;8.99;100.00
5574;BME280;2563;52.242;7.956;2022-12-29T08:43:23;95989.69;;;9.10;100.00
5574;BME280;2563;52.242;7.956;2022-12-29T08:45:49;95999.28;;;9.08;100.00
5574;BME280;2563;52.242;7.956;2022-12-29T08:48:14;96011.53;;;9.05;100.00
5574;BME280;2563;52.242;7.956;2022-12-29T08:50:43;96021.78;;;9.14;100.00
5574;BME280;2563;52.242;7.956;2022-12-29T08:53:09;96010.84;;;9.22;100.00
5574;BME280;2563;52.242;7.956;2022-12-29T08:55:35;96026.34;;;9.21;100.00
5574;BME280;2563;52.242;7.956;2022-12-29T08:58:00;96027.56;;;9.16;100.00
5574;BME280;2563;52.242;7.956;2022-12-29T09:00:26;96036.63;;;9.21;100.00
5574;BME280;2563;52.242;7.956;2022-12-29T09:02:51;96042.28;;;9.14;100.00
5574;BME280;2563;52.242;7.956;2022-12-29T09:05:17;96055.41;;;9.11;100.00
5574;BME280;2563;52.242;7.956;2022-12-29T09:07:42;96060.91;;;9.16;100.00
5574;BME280;2563;52.242;7.956;2022-12-29T09:10:07;96059.41;;;9.24;100.00
5574;BME280;2563;52.242;7.956;2022-12-29T09:12:33;96065.97;;;9.36;100.00
5574;BME280;2563;52.242;7.956;2022-12-29T09:14:58;96069.19;;;9.48;100.00
5574;BME280;2563;52.242;7.956;2022-12-29T09:17:24;96065.25;;;9.53;100.00
5574;BME280;2563;52.242;7.956;2022-12-29T09:20:09;96053.56;;;9.69;100.00
5574;BME280;2563;52.242;7.956;2022-12-29T09:22:35;96070.69;;;9.78;100.00
5574;BME280;2563;52.242;7.956;2022-12-29T09:25:01;96074.22;;;9.77;100.00
5574;BME280;2563;52.242;7.956;2022-12-29T09:27:26;96089.63;;;9.77;100.00
5574;BME280;2563;52.242;7.956;2022-12-29T09:29:52;96124.38;;;9.62;100.00
5574;BME280;2563;52.242;7.956;2022-12-29T09:32:17;96130.19;;;9.64;100.00
5574;BME280;2563;52.242;7.956;2022-12-29T09:34:42;96152.88;;;9.68;100.00
5574;BME280;2563;52.242;7.956;2022-12-29T09:37:08;96150.66;;;9.83;100.00
5574;BME280;2563;52.242;7.956;2022-12-29T09:39:33;96163.59;;;9.91;100.00
5574;BME280;2563;52.242;7.956;2022-12-29T09:45:14;96201.28;;;9.91;100.00
5574;BME280;2563;52.242;7.956;2022-12-29T09:47:42;96231.44;;;9.98;100.00
5574;BME280;2563;52.242;7.956;2022-12-29T09:52:55;96269.94;;;10.08;100.00
5574;BME280;2563;52.242;7.956;2022-12-29T09:55:28;96271.63;;;10.27;100.00
5574;BME280;2563;52.242;7.956;2022-12-29T10:00:38;96280.94;;;10.38;100.00
5574;BME280;2563;52.242;7.956;2022-12-29T10:03:13;96315.97;;;10.29;100.00
5574;BME280;2563;52.242;7.956;2022-12-29T10:05:46;96334.91;;;10.38;100.00
5574;BME280;2563;52.242;7.956;2022-12-29T10:08:22;96345.53;;;10.53;100.00
5574;BME280;2563;52.242;7.956;2022-12-29T10:10:55;96349.03;;;10.61;100.00
5574;BME280;2563;52.242;7.956;2022-12-29T10:13:50;96385.72;;;10.54;100.00
5574;BME280;2563;52.242;7.956;2022-12-29T10:19:21;96443.91;;;10.45;100.00
5574;BME280;2563;52.242;7.956;2022-12-29T10:24:49;96512.22;;;10.48;100.00
5574;BME280;2563;52.242;7.956;2022-12-29T10:27:17;96529.94;;;10.51;100.00
5574;BME280;2563;52.242;7.956;2022-12-29T10:29:48;96557.81;;;10.46;100.00
5574;BME280;2563;52.242;7.956;2022-12-29T10:32:35;96571.88;;;10.51;100.00
5574;BME280;2563;52.242;7.956;2022-12-29T10:35:11;96619.09;;;10.50;100.00
5574;BME280;2563;52.242;7.956;2022-12-29T10:37:45;96640.63;;;10.49;100.00
5574;BME280;2563;52.242;7.956;2022-12-29T10:42:54;96673.38;;;10.57;100.00
5574;BME280;2563;52.242;7.956;2022-12-29T10:45:24;96716.94;;;10.58;100.00
5574;BME280;2563;52.242;7.956;2022-12-29T10:47:59;96739.41;;;10.56;100.00
5574;BME280;2563;52.242;7.956;2022-12-29T10:50:27;96761.03;;;10.54;100.00
5574;BME280;2563;52.242;7.956;2022-12-29T10:52:57;96788.63;;;10.52;100.00
5574;BME280;2563;52.242;7.956;2022-12-29T10:55:33;96813.38;;;10.53;100.00
5574;BME280;2563;52.242;7.956;2022-12-29T10:58:03;96841.13;;;10.49;100.00
5574;BME280;2563;52.242;7.956;2022-12-29T11:00:30;96867.22;;;10.45;100.00
5574;BME280;2563;52.242;7.956;2022-12-29T11:05:48;96910.47;;;10.39;100.00
5574;BME280;2563;52.242;7.956;2022-12-29T11:08:22;96919.53;;;10.43;100.00
5574;BME280;2563;52.242;7.956;2022-12-29T11:11:04;96942.00;;;10.41;100.00
5574;BME280;2563;52.242;7.956;2022-12-29T11:13:51;96953.66;;;10.46;100.00
5574;BME280;2563;52.242;7.956;2022-12-29T11:16:33;96978.06;;;10.51;100.00
5574;BME280;2563;52.242;7.956;2022-12-29T11:19:00;96995.47;;;10.48;100.00
5574;BME280;2563;52.242;7.956;2022-12-29T11:21:36;97004.69;;;10.50;100.00
5574;BME280;2563;52.242;7.956;2022-12-29T11:24:26;97025.97;;;10.52;100.00
5574;BME280;2563;52.242;7.956;2022-12-29T11:27:14;97041.00;;;10.57;100.00
5574;BME280;2563;52.242;7.956;2022-12-29T11:29:41;97075.94;;;10.59;100.00
5574;BME280;2563;52.242;7.956;2022-12-29T11:34:44;97104.78;;;10.63;100.00
5574;BME280;2563;52.242;7.956;2022-12-29T11:37:11;97112.13;;;10.68;100.00
5574;BME280;2563;52.242;7.956;2022-12-29T11:40:02;97136.56;;;10.73;100.00
5574;BME280;2563;52.242;7.956;2022-12-29T11:42:46;97139.69;;;10.77;100.00
5574;BME280;2563;52.242;7.956;2022-12-29T11:45:16;97195.84;;;10.72;100.00
5574;BME280;2563;52.242;7.956;2022-12-29T11:47:45;97198.50;;;10.70;100.00
5574;BME280;2563;52.242;7.956;2022-12-29T11:50:18;97211.63;;;10.67;100.00
5574;BME280;2563;52.242;7.956;2022-12-29T11:52:45;97231.75;;;10.62;100.00
5574;BME280;2563;52.242;7.956;2022-12-29T11:55:24;97247.41;;;10.59;100.00
5574;BME280;2563;52.242;7.956;2022-12-29T11:57:52;97287.50;;;10.61;100.00
5574;BME280;2563;52.242;7.956;2022-12-29T12:00:21;97295.56;;;10.57;100.00
5574;BME280;2563;52.242;7.956;2022-12-29T12:05:45;97304.78;;;10.82;100.00
5574;BME280;2563;52.242;7.956;2022-12-29T12:13:39;97354.47;;;10.94;100.00
5574;BME280;2563;52.242;7.956;2022-12-29T12:16:13;97377.72;;;10.70;100.00
5574;BME280;2563;52.242;7.956;2022-12-29T12:18:46;97387.44;;;10.66;100.00
5574;BME280;2563;52.242;7.956;2022-12-29T12:26:32;97415.00;;;10.41;100.00
5574;BME280;2563;52.242;7.956;2022-12-29T12:29:08;97433.66;;;10.32;100.00
5574;BME280;2563;52.242;7.956;2022-12-29T12:31:46;97440.25;;;10.23;100.00
5574;BME280;2563;52.242;7.956;2022-12-29T12:34:27;97451.47;;;10.22;100.00
5574;BME280;2563;52.242;7.956;2022-12-29T13:09:36;97523.03;;;10.29;100.00
5574;BME280;2563;52.242;7.956;2022-12-29T13:12:22;97537.41;;;10.31;100.00
5574;BME280;2563;52.242;7.956;2022-12-29T13:17:38;97542.53;;;10.31;100.00
5574;BME280;2563;52.242;7.956;2022-12-29T13:22:44;97567.22;;;10.34;100.00
5574;BME280;2563;52.242;7.956;2022-12-29T13:25:43;97581.81;;;10.33;100.00
5574;BME280;2563;52.242;7.956;2022-12-29T13:36:25;97611.63;;;10.36;100.00
5574;BME280;2563;52.242;7.956;2022-12-29T13:41:30;97626.66;;;10.29;100.00
5574;BME280;2563;52.242;7.956;2022-12-29T13:43:57;97629.50;;;10.25;100.00
5574;BME280;2563;52.242;7.956;2022-12-29T13:46:33;97646.81;;;10.22;100.00
5574;BME280;2563;52.242;7.956;2022-12-29T13:49:04;97663.28;;;10.20;100.00
5574;BME280;2563;52.242;7.956;2022-12-29T13:51:31;97669.41;;;10.17;100.00
5574;BME280;2563;52.242;7.956;2022-12-29T13:59:59;97689.66;;;10.22;100.00
5574;BME280;2563;52.242;7.956;2022-12-29T14:07:46;97722.88;;;10.12;100.00
5574;BME280;2563;52.242;7.956;2022-12-29T14:13:00;97729.06;;;10.10;100.00
5574;BME280;2563;52.242;7.956;2022-12-29T14:15:27;97728.66;;;10.16;100.00
5574;BME280;2563;52.242;7.956;2022-12-29T14:18:12;97749.31;;;10.14;100.00
5574;BME280;2563;52.242;7.956;2022-12-29T14:20:52;97752.09;;;10.11;100.00
5574;BME280;2563;52.242;7.956;2022-12-29T14:23:37;97763.59;;;10.06;100.00
5574;BME280;2563;52.242;7.956;2022-12-29T14:34:14;97817.22;;;9.97;100.00
5574;BME280;2563;52.242;7.956;2022-12-29T14:38:59;97834.19;;;9.87;100.00
5574;BME280;2563;52.242;7.956;2022-12-29T14:46:48;97861.41;;;9.77;100.00
5574;BME280;2563;52.242;7.956;2022-12-29T14:49:26;97849.16;;;9.80;100.00
5574;BME280;2563;52.242;7.956;2022-12-29T14:51:54;97853.28;;;9.83;100.00
5574;BME280;2563;52.242;7.956;2022-12-29T14:57:06;97871.47;;;9.80;100.00
5574;BME280;2563;52.242;7.956;2022-12-29T14:59:34;97884.41;;;9.78;100.00
5574;BME280;2563;52.242;7.956;2022-12-29T15:02:03;97888.06;;;9.74;100.00
5574;BME280;2563;52.242;7.956;2022-12-29T15:04:35;97893.63;;;9.68;100.00
5574;BME280;2563;52.242;7.956;2022-12-29T15:07:02;97895.13;;;9.58;100.00
5574;BME280;2563;52.242;7.956;2022-12-29T15:09:35;97903.75;;;9.43;100.00
5574;BME280;2563;52.242;7.956;2022-12-29T15:14:59;97887.34;;;9.45;100.00
5574;BME280;2563;52.242;7.956;2022-12-29T15:17:32;97892.63;;;9.56;100.00
5574;BME280;2563;52.242;7.956;2022-12-29T15:20:01;97884.94;;;9.56;100.00
5574;BME280;2563;52.242;7.956;2022-12-29T15:22:27;97895.56;;;9.50;100.00
5574;BME280;2563;52.242;7.956;2022-12-29T15:24:53;97896.78;;;9.45;100.00
5574;BME280;2563;52.242;7.956;2022-12-29T15:27:22;97900.88;;;9.34;100.00
5574;BME280;2563;52.242;7.956;2022-12-29T15:29:55;97896.00;;;9.30;100.00
5574;BME280;2563;52.242;7.956;2022-12-29T15:32:23;97899.47;;;9.29;100.00
5574;BME280;2563;52.242;7.956;2022-12-29T15:34:58;97885.56;;;9.19;100.00
5574;BME280;2563;52.242;7.956;2022-12-29T15:37:33;97878.81;;;9.18;100.00
5574;BME280;2563;52.242;7.956;2022-12-29T15:40:00;97880.63;;;9.15;100.00
5574;BME280;2563;52.242;7.956;2022-12-29T15:45:06;97876.78;;;9.23;100.00
5574;BME280;2563;52.242;7.956;2022-12-29T15:47:33;97874.13;;;9.24;100.00
5574;BME280;2563;52.242;7.956;2022-12-29T15:50:06;97861.19;;;9.26;100.00
5574;BME280;2563;52.242;7.956;2022-12-29T15:52:34;97872.38;;;9.25;100.00
5574;BME280;2563;52.242;7.956;2022-12-29T15:55:03;97874.78;;;9.13;100.00
5574;BME280;2563;52.242;7.956;2022-12-29T15:57:36;97860.06;;;9.03;100.00
5574;BME280;2563;52.242;7.956;2022-12-29T16:00:03;97885.25;;;8.96;100.00
5574;BME280;2563;52.242;7.956;2022-12-29T16:02:29;97884.50;;;8.80;100.00
5574;BME280;2563;52.242;7.956;2022-12-29T16:04:55;97874.19;;;8.67;100.00
5574;BME280;2563;52.242;7.956;2022-12-29T16:07:32;97862.19;;;8.53;100.00
5574;BME280;2563;52.242;7.956;2022-12-29T16:10:00;97843.97;;;8.43;100.00